createdAt,value
2023-04-27T00:05:03.871Z,7.2
2023-04-27T00:10:56.501Z,7.1
2023-04-27T00:16:47.798Z,6.9
2023-04-27T00:22:39.098Z,6.8
2023-04-27T00:28:15.750Z,6.7
2023-04-27T00:34:06.994Z,6.6
2023-04-27T00:39:57.397Z,6.4
2023-04-27T00:45:50.788Z,6.3
2023-04-27T00:51:42.543Z,6.1
2023-04-27T00:57:33.153Z,5.9
2023-04-27T01:03:10.263Z,5.8
2023-04-27T01:09:03.438Z,5.6
2023-04-27T01:14:54.635Z,5.5
2023-04-27T01:20:47.058Z,5.4
2023-04-27T01:26:40.051Z,5.2
2023-04-27T01:32:31.816Z,5
2023-04-27T01:38:24.469Z,4.9
2023-04-27T01:44:16.155Z,4.8
2023-04-27T01:50:07.545Z,4.7
2023-04-27T01:55:59.357Z,4.6
2023-04-27T02:01:49.786Z,4.4
2023-04-27T02:07:27.397Z,4.3
2023-04-27T02:13:04.168Z,4.2
2023-04-27T02:18:56.070Z,4.1
2023-04-27T02:24:47.352Z,4
2023-04-27T02:30:44.747Z,3.9
2023-04-27T02:36:36.899Z,3.8
2023-04-27T02:42:27.336Z,3.6
2023-04-27T02:48:03.963Z,3.6
2023-04-27T02:53:55.528Z,3.6
2023-04-27T02:59:47.184Z,3.4
2023-04-27T03:05:41.574Z,3.4
2023-04-27T03:11:34.402Z,3.3
2023-04-27T03:17:26.940Z,3.2
2023-04-27T03:23:19.117Z,3.1
2023-04-27T03:28:54.702Z,3.1
2023-04-27T03:34:30.899Z,3
2023-04-27T03:40:07.480Z,2.9
2023-04-27T03:45:59.530Z,2.9
2023-04-27T03:51:49.789Z,2.8
2023-04-27T03:57:42.010Z,2.8
2023-04-27T04:03:34.638Z,2.7
2023-04-27T04:09:26.552Z,2.6
2023-04-27T04:15:18.287Z,2.6
2023-04-27T04:21:09.494Z,2.6
2023-04-27T04:27:01.210Z,2.6
2023-04-27T04:32:38.467Z,2.6
2023-04-27T04:38:14.506Z,2.7
2023-04-27T04:43:53.332Z,2.8
2023-04-27T04:49:48.156Z,3.1
2023-04-27T04:55:39.894Z,3.4
2023-04-27T05:01:32.904Z,4
2023-04-27T05:07:30.487Z,4.7
2023-04-27T05:13:23.604Z,5.3
2023-04-27T05:19:14.987Z,5.9
2023-04-27T05:24:52.401Z,6.4
2023-04-27T05:30:44.120Z,7.3
2023-04-27T05:36:35.204Z,8.1
2023-04-27T05:41:56.752Z,8.8
2023-04-27T05:47:33.326Z,9.5
2023-04-27T05:53:09.646Z,10.1
2023-04-27T05:58:39.522Z,10.7
2023-04-27T06:04:17.763Z,11.5
2023-04-27T06:09:55.538Z,12.6
2023-04-27T06:15:31.807Z,13.7
2023-04-27T06:21:24.208Z,15.3
2023-04-27T06:27:00.368Z,16.3
2023-04-27T06:32:52.173Z,16.9
2023-04-27T06:38:45.688Z,17.3
2023-04-27T06:44:37.294Z,17.6
2023-04-27T06:50:29.465Z,18.3
2023-04-27T06:56:23.929Z,22.3
2023-04-27T07:02:14.665Z,27.6
2023-04-27T07:08:08.678Z,18.5
2023-04-27T07:14:11.931Z,30.6
2023-04-27T07:20:02.761Z,33
2023-04-27T07:25:56.672Z,34.6
2023-04-27T07:32:01.001Z,36.1
2023-04-27T07:38:08.003Z,37.4
2023-04-27T07:44:00.536Z,38.8
2023-04-27T07:49:52.647Z,39.9
2023-04-27T07:55:43.880Z,41
2023-04-27T08:01:37.935Z,42.1
2023-04-27T08:07:38.312Z,43.1
2023-04-27T08:13:15.613Z,44.1
2023-04-27T08:18:52.401Z,45.1
2023-04-27T08:23:42.248Z,45.9
2023-04-27T08:29:08.987Z,46.8
2023-04-27T08:34:22.307Z,47.8
2023-04-27T08:39:42.935Z,48.6
2023-04-27T08:45:18.291Z,49.1
2023-04-27T08:50:49.971Z,50.1
2023-04-27T08:56:43.803Z,50.2
2023-04-27T09:02:36.749Z,50.4
2023-04-27T09:08:42.753Z,50.9
2023-04-27T09:14:33.963Z,51.8
2023-04-27T09:25:30.478Z,51.8
2023-04-27T09:31:22.193Z,52.8
2023-04-27T09:37:14.320Z,51.2
2023-04-27T09:43:05.466Z,51.4
2023-04-27T09:48:59.411Z,52.6
2023-04-27T09:54:34.591Z,51.2
2023-04-27T10:00:26.198Z,52.5
2023-04-27T10:06:49.193Z,51.5
2023-04-27T10:12:40.110Z,52.9
2023-04-27T10:18:31.942Z,53.8
2023-04-27T10:24:25.957Z,53.8
2023-04-27T10:30:18.720Z,52.7
2023-04-27T10:36:10.332Z,54.2
2023-04-27T10:42:17.405Z,52.9
2023-04-27T10:48:08.376Z,53.8
2023-04-27T10:53:45.007Z,52.9
2023-04-27T10:59:45.031Z,54
2023-04-27T11:05:22.438Z,52.6
2023-04-27T11:11:00.158Z,52
2023-04-27T11:16:51.834Z,51.7
2023-04-27T11:22:42.708Z,51.6
2023-04-27T11:28:34.612Z,50.9
2023-04-27T11:34:13.753Z,51.1
2023-04-27T11:39:46.808Z,50.9
2023-04-27T11:45:25.164Z,50.4
2023-04-27T11:50:46.523Z,50
2023-04-27T11:56:10.153Z,49.6
2023-04-27T12:01:37.886Z,50
2023-04-27T12:07:27.621Z,51.4
2023-04-27T12:18:25.763Z,51.5
2023-04-27T12:24:17.296Z,51.4
2023-04-27T12:35:33.246Z,51.2
2023-04-27T12:41:24.958Z,51.8
2023-04-27T12:47:23.766Z,51.1
2023-04-27T12:53:36.727Z,50.7
2023-04-27T12:59:43.157Z,50.8
2023-04-27T13:05:38.402Z,50.4
2023-04-27T13:11:30.385Z,50.4
2023-04-27T13:17:23.062Z,50.3
2023-04-27T13:23:20.260Z,50.9
2023-04-27T13:29:13.024Z,50.5
2023-04-27T13:35:19.277Z,49.4
2023-04-27T13:41:10.756Z,49.1
2023-04-27T13:47:03.008Z,48.9
2023-04-27T13:52:39.762Z,48.3
2023-04-27T13:58:30.538Z,47.6
2023-04-27T14:04:24.295Z,47.1
2023-04-27T14:10:16.253Z,46.5
2023-04-27T14:16:25.549Z,46.6
2023-04-27T14:22:28.441Z,45.9
2023-04-27T14:28:20.250Z,45.6
2023-04-27T14:34:11.261Z,45
2023-04-27T14:40:03.449Z,44.4
2023-04-27T14:46:19.526Z,42.5
2023-04-27T14:52:11.919Z,39.9
2023-04-27T14:58:03.484Z,42.3
2023-04-27T15:03:56.659Z,39.4
2023-04-27T15:09:48.166Z,37.9
2023-04-27T15:15:40.733Z,36.1
2023-04-27T15:21:33.045Z,33.9
2023-04-27T15:27:26.554Z,32
2023-04-27T15:33:19.204Z,30.3
2023-04-27T15:39:10.514Z,28.8
2023-04-27T15:45:02.443Z,27.4
2023-04-27T15:50:50.844Z,26.3
2023-04-27T15:56:46.841Z,25.2
2023-04-27T16:02:39.023Z,24.2
2023-04-27T16:08:31.989Z,23.2
2023-04-27T16:14:26.948Z,22.3
2023-04-27T16:20:03.286Z,21.4
2023-04-27T16:25:55.183Z,20.6
2023-04-27T16:31:46.909Z,19.8
2023-04-27T16:37:38.205Z,19.1
2023-04-27T16:43:15.411Z,18.4
2023-04-27T16:49:07.530Z,17.8
2023-04-27T16:54:59.369Z,17.2
2023-04-27T17:00:35.937Z,16.7
2023-04-27T17:06:41.467Z,16.1
2023-04-27T17:12:34.402Z,15.6
2023-04-27T17:18:26.509Z,15.1
2023-04-27T17:24:21.508Z,14.7
2023-04-27T17:30:14.445Z,14.3
2023-04-27T17:36:10.018Z,13.9
2023-04-27T17:42:02.067Z,13.6
2023-04-27T17:47:53.273Z,13.2
2023-04-27T17:53:45.535Z,12.9
2023-04-27T17:59:22.452Z,12.6
2023-04-27T18:05:00.879Z,12.3
2023-04-27T18:10:24.163Z,11.9
2023-04-27T18:16:03.578Z,11.6
2023-04-27T18:22:09.876Z,11.2
2023-04-27T18:28:02.907Z,10.9
2023-04-27T18:33:56.555Z,10.6
2023-04-27T18:39:48.120Z,10.3
2023-04-27T18:45:40.043Z,10.1
2023-04-27T18:51:17.419Z,9.8
2023-04-27T18:57:08.873Z,9.6
2023-04-27T19:03:02.429Z,9.4
2023-04-27T19:09:14.756Z,9.2
2023-04-27T19:15:11.574Z,8.9
2023-04-27T19:21:15.151Z,8.8
2023-04-27T19:27:24.503Z,8.6
2023-04-27T19:33:19.702Z,8.4
2023-04-27T19:39:14.493Z,8.3
2023-04-27T19:44:54.690Z,8.1
2023-04-27T19:50:48.387Z,7.9
2023-04-27T19:56:41.890Z,7.7
2023-04-27T20:02:34.743Z,7.4
2023-04-27T20:08:33.213Z,7.3
2023-04-27T20:14:42.341Z,7.1
2023-04-27T20:20:20.408Z,6.8
2023-04-27T20:26:01.020Z,6.7
2023-04-27T20:31:54.186Z,6.5
2023-04-27T20:38:00.303Z,6.3
2023-04-27T20:43:54.145Z,6.2
2023-04-27T20:49:19.287Z,6.1
2023-04-27T20:55:20.920Z,5.9
2023-04-27T21:01:13.281Z,5.8
2023-04-27T21:07:07.129Z,5.6
2023-04-27T21:13:01.414Z,5.5
2023-04-27T21:19:07.628Z,5.4
2023-04-27T21:25:07.866Z,5.3
2023-04-27T21:30:59.960Z,5.1
2023-04-27T21:36:54.911Z,4.9
2023-04-27T21:42:46.515Z,4.8
2023-04-27T21:48:38.521Z,4.6
2023-04-27T21:54:14.869Z,4.5
2023-04-27T22:00:09.942Z,4.3
2023-04-27T22:06:03.312Z,4.1
2023-04-27T22:11:26.212Z,4.1
2023-04-27T22:17:30.402Z,3.9
2023-04-27T22:23:22.064Z,3.8
2023-04-27T22:29:27.578Z,3.7
2023-04-27T22:35:26.186Z,3.6
2023-04-27T22:41:18.185Z,3.5
2023-04-27T22:47:09.313Z,3.4
2023-04-27T22:52:59.951Z,3.3
2023-04-27T22:58:51.164Z,3.3
2023-04-27T23:04:43.969Z,3.2
2023-04-27T23:10:35.641Z,3.1
2023-04-27T23:16:27.354Z,3
2023-04-27T23:22:25.376Z,2.9
2023-04-27T23:28:17.062Z,2.9
2023-04-27T23:34:09.070Z,2.8
2023-04-27T23:39:44.816Z,2.8
2023-04-27T23:45:20.522Z,2.7
2023-04-27T23:51:12.257Z,2.6
2023-04-27T23:56:48.509Z,2.6
